Data for 02/26/2005

Time Sea-Level Adjusted Pressure Absolute Pressure Temperature Relative Humidity Dew Point   
(mb) (inHg) (mb) (inHg) (C) (F) (%) (C) (F)
00:05 1015 29.97 844 24.92 1.1 34 37 -12.1 10.2
00:10 1015 29.97 844 24.92 1.4 34.5 36 -12 10.3
00:15 1015 29.97 844 24.92 1.4 34.5 37 -11.8 10.7
00:20 1015 29.97 844 24.92 1.6 34.9 35 -12.4 9.7
00:25 1015 29.97 844 24.92 1.7 35.1 35 -12.3 9.8
00:30 1015 29.97 844 24.92 1.5 34.7 36 -12.1 10.2
00:35 1015 29.97 844 24.92 1.4 34.6 35 -12.6 9.3
00:40 1015 29.97 844 24.92 1.7 35.1 35 -12.2 10
00:45 1015 29.97 844 24.92 1.5 34.7 36 -12.1 10.2
00:50 1015 29.97 844 24.92 1.4 34.6 36 -12 10.5
00:55 1015 29.97 844 24.92 1.5 34.6 39 -11 12.2
01:00 1015 29.97 844 24.92 1.4 34.5 40 -10.8 12.5
01:05 1015 29.97 844 24.92 1 33.8 42 -10.4 13.3
01:10 1015 29.97 844 24.92 0.9 33.6 44 -10.1 13.9
01:15 1015 29.97 844 24.92 0.7 33.3 42 -10.6 12.9
01:20 1015 29.97 844 24.92 1 33.8 41 -10.8 12.5
01:25 1015 29.97 844 24.92 0.9 33.7 42 -10.6 12.9
01:30 1015 29.97 844 24.92 0.5 32.9 44 -10.3 13.4
01:35 1015 29.97 844 24.92 0.2 32.3 44 -10.7 12.8
01:40 1015 29.97 844 24.92 0.2 32.4 42 -11.1 12
01:45 1015 29.97 844 24.92 0.3 32.5 46 -10.1 13.8
01:50 1015 29.97 844 24.92 0.3 32.6 43 -10.8 12.6
01:55 1015 29.97 844 24.92 0.3 32.6 43 -11 12.3
02:00 1015 29.97 844 24.92 0.4 32.8 44 -10.6 12.9
02:05 1015 29.97 844 24.92 0.4 32.8 45 -10.1 13.9
02:10 1015 29.97 844 24.92 0.1 32.1 47 -10.1 13.8
02:15 1015 29.97 844 24.92 -0.1 31.8 47 -10.1 13.9
02:20 1015 29.97 844 24.92 0.1 32.2 45 -10.6 13
02:25 1015 29.97 844 24.92 0.2 32.4 44 -10.7 12.7
02:30 1015 29.97 844 24.92 0.1 32.1 45 -10.6 12.9
02:35 1015 29.97 844 24.92 -0.2 31.7 45 -10.7 12.7
02:40 1015 29.97 844 24.92 -0.2 31.6 45 -10.7 12.8
02:45 1015 29.97 844 24.92 -0.2 31.7 45 -10.8 12.6
02:50 1015 29.97 844 24.92 -0.5 31.2 46 -10.8 12.6
02:55 1015 29.97 844 24.92 -0.3 31.4 45 -10.9 12.3
03:00 1015 29.97 844 24.92 -0.3 31.4 45 -10.9 12.5
03:05 1015 29.97 844 24.92 -0.6 31 47 -10.4 13.3
03:10 1015 29.97 844 24.92 -0.7 30.7 47 -10.6 12.9
03:15 1015 29.97 844 24.92 -0.5 31 47 -10.5 13.2
03:20 1015 29.97 844 24.92 -0.8 30.6 48 -10.4 13.3
03:25 1015 29.97 844 24.92 -1.1 30 51 -10.1 13.9
03:30 1015 29.97 844 24.92 -1.1 30 49 -10.5 13.1
03:35 1015 29.97 844 24.92 -1 30.2 49 -10.5 13.1
03:40 1015 29.97 844 24.92 -1.1 30.1 50 -10.1 13.7
03:45 1015 29.97 844 24.92 -1.3 29.7 48 -10.9 12.4
03:50 1015 29.97 844 24.92 -1 30.2 50 -10 13.9
03:55 1015 29.97 844 24.92 -1.2 29.8 51 -10.1 13.8
04:00 1015 29.97 844 24.92 -1.1 30.1 50 -10.2 13.6
04:05 1015 29.97 844 24.92 -1.1 30 48 -10.7 12.7
04:10 1015 29.97 844 24.92 -0.9 30.4 48 -10.7 12.7
04:15 1015 29.97 844 24.92 -0.8 30.6 47 -10.8 12.6
04:20 1015 29.97 844 24.92 -0.7 30.8 48 -10.4 13.3
04:25 1015 29.97 844 24.92 -1 30.2 50 -10.1 13.8
04:30 1015 29.97 844 24.92 -1.1 30 50 -10.2 13.7
04:35 1015 29.97 844 24.92 -1.3 29.7 52 -9.9 14.2
04:40 1015 29.97 844 24.92 -1 30.1 49 -10.5 13.1
04:45 1015 29.97 844 24.92 -0.8 30.5 50 -10.1 13.9
04:50 1015 29.97 844 24.92 -1.1 30 50 -10.2 13.6
04:55 1015 29.97 844 24.92 -1.2 29.9 51 -10 14.1
05:00 1015 29.97 844 24.92 -1.1 30 51 -10 13.9
05:05 1015 29.97 844 24.92 -1.4 29.5 52 -10 13.9
05:10 1015 29.97 844 24.92 -1.6 29 52 -10.2 13.6
05:15 1015 29.97 844 24.92 -1.7 29 52 -10.2 13.7
05:20 1015 29.97 845 24.95 -1.8 28.7 53 -10.1 13.8
05:25 1015 29.97 845 24.95 -1.7 28.9 53 -10.2 13.7
05:30 1015 29.97 845 24.95 -1.8 28.7 53 -10.2 13.7
05:35 1015 29.97 845 24.95 -1.7 28.9 53 -10.1 13.8
05:40 1015 29.97 845 24.95 -1.7 29 53 -10.1 13.8
05:45 1015 29.97 845 24.95 -1.8 28.7 53 -10.1 13.8
05:50 1015 29.97 845 24.95 -1.9 28.7 53 -10.3 13.5
05:55 1015 29.97 845 24.95 -1.7 28.9 53 -10.1 13.9
06:00 1015 29.97 845 24.95 -1.7 29 54 -9.9 14.2
06:05 1015 29.97 845 24.95 -1.9 28.5 54 -10 14
06:10 1015 29.97 845 24.95 -2.2 28.1 55 -10.1 13.9
06:15 1016 30 845 24.95 -2.1 28.3 53 -10.3 13.4
06:20 1016 30 845 24.95 -2 28.4 54 -10.2 13.6
06:25 1016 30 845 24.95 -2.2 28.1 54 -10.3 13.5
06:30 1016 30 845 24.95 -2.4 27.8 54 -10.4 13.3
06:35 1016 30 845 24.95 -2.4 27.8 55 -10.3 13.5
06:40 1016 30 845 24.95 -2.4 27.7 56 -10.1 13.8
06:45 1016 30 845 24.95 -2.8 26.9 58 -10 13.9
06:50 1016 30 845 24.95 -3 26.7 57 -10.3 13.5
06:55 1016 30 845 24.95 -3 26.6 58 -10.1 13.9
07:00 1016 30 845 24.95 -3.2 26.2 59 -10.1 13.8
07:05 1016 30 845 24.95 -2.9 26.8 57 -10.4 13.4
07:10 1016 30 845 24.95 -2.4 27.7 54 -10.5 13
07:15 1016 30 845 24.95 -1.6 29.1 51 -10.5 13.2
07:20 1016 30 845 24.95 -1.2 29.9 52 -9.9 14.1
07:25 1016 30 845 24.95 -1.7 28.9 56 -9.4 15.1
07:30 1016 30 845 24.95 -2.6 27.4 58 -9.6 14.7
07:35 1016 30 845 24.95 -2.4 27.7 57 -9.8 14.3
07:40 1016 30 845 24.95 -1.9 28.7 53 -10.3 13.4
07:45 1016 30 845 24.95 -1.8 28.7 56 -9.5 14.9
07:50 1016 30 845 24.95 -2.1 28.2 55 -9.9 14.1
07:55 1016 30 845 24.95 -2 28.5 55 -9.9 14.2
08:00 1016 30 845 24.95 -1.7 28.9 53 -10.2 13.7
08:05 1016 30 845 24.95 -1.2 29.8 50 -10.3 13.5
08:10 1016 30 845 24.95 -1 30.1 50 -10.2 13.6
08:15 1016 30 845 24.95 -1.1 30.1 48 -10.7 12.7
08:20 1016 30 845 24.95 -0.6 30.9 50 -9.8 14.3
08:25 1016 30 846 24.98 -0.4 31.3 49 -9.7 14.5
08:30 1016 30 846 24.98 -0.3 31.4 49 -9.8 14.3
08:35 1016 30 846 24.98 -0.6 31 51 -9.6 14.8
08:40 1016 30 846 24.98 -0.5 31.1 50 -9.7 14.5
08:45 1016 30 846 24.98 0 32.1 47 -9.9 14.2
08:50 1016 30 846 24.98 0.4 32.8 47 -9.6 14.8
08:55 1016 30 846 24.98 1.5 34.7 44 -9.6 14.8
09:00 1016 30 846 24.98 2.1 35.8 41 -9.8 14.4
09:05 1016 30 846 24.98 2.4 36.3 39 -10.2 13.7
09:10 1016 30 846 24.98 3.3 38 36 -10.2 13.6
09:15 1017 30.03 846 24.98 3.9 39 35 -10 13.9
09:20 1017 30.03 846 24.98 4.2 39.5 35 -10.1 13.9
09:25 1017 30.03 846 24.98 4.7 40.4 32 -10.7 12.7
09:30 1017 30.03 846 24.98 4.4 39.9 34 -10.1 13.8
09:35 1017 30.03 846 24.98 3.5 38.3 36 -10.2 13.6
09:40 1017 30.03 846 24.98 3.6 38.4 37 -9.9 14.1
09:45 1017 30.03 846 24.98 4 39.2 35 -10.2 13.7
09:50 1017 30.03 846 24.98 4.8 40.7 33 -10.1 13.8
09:55 1017 30.03 846 24.98 5.1 41.2 34 -9.7 14.6
10:00 1017 30.03 846 24.98 5.6 42.1 31 -10.2 13.7
10:05 1017 30.03 846 24.98 5.8 42.4 31 -10.1 13.8
10:10 1017 30.03 846 24.98 5.4 41.7 32 -9.9 14.2
10:15 1017 30.03 846 24.98 5.6 42.2 31 -10 14
10:20 1017 30.03 846 24.98 6.3 43.4 30 -10.2 13.7
10:25 1017 30.03 846 24.98 6 42.7 32 -9.4 15.1
10:30 1017 30.03 846 24.98 5.7 42.2 32 -9.8 14.4
10:35 1017 30.03 846 24.98 6.1 42.9 32 -9.4 15
10:40 1017 30.03 846 24.98 6 42.7 33 -9.3 15.2
10:45 1017 30.03 846 24.98 6.1 43 33 -9.1 15.7
10:50 1017 30.03 846 24.98 6.2 43.1 31 -9.7 14.6
10:55 1017 30.03 846 24.98 6.8 44.2 30 -9.5 15
11:00 1017 30.03 846 24.98 6.8 44.2 30 -9.5 14.9
11:05 1017 30.03 846 24.98 7.2 44.9 29 -9.7 14.6
11:10 1017 30.03 846 24.98 7.1 44.7 30 -9.2 15.4
11:15 1017 30.03 846 24.98 7.3 45.2 28 -10 13.9
11:20 1017 30.03 846 24.98 7.9 46.2 28 -9.6 14.8
11:25 1017 30.03 846 24.98 7.8 46 28 -9.8 14.4
11:30 1017 30.03 846 24.98 7.5 45.4 28 -9.9 14.2
11:35 1017 30.03 846 24.98 8 46.4 27 -9.9 14.2
11:40 1017 30.03 846 24.98 8.1 46.5 27 -9.7 14.5
11:45 1017 30.03 846 24.98 8.3 47 28 -9.3 15.3
11:50 1017 30.03 846 24.98 7.5 45.5 30 -9.1 15.7
11:55 1017 30.03 846 24.98 7.2 45 30 -9.3 15.3
12:00 1017 30.03 846 24.98 6.2 43.1 31 -9.7 14.6
12:05 1017 30.03 846 24.98 6.8 44.3 30 -9.6 14.7
12:10 1017 30.03 846 24.98 8.2 46.7 27 -9.6 14.7
12:15 1017 30.03 846 24.98 8.7 47.6 28 -8.9 16
12:20 1017 30.03 846 24.98 8.4 47 28 -9 15.8
12:25 1017 30.03 846 24.98 7.8 46 30 -8.5 16.6
12:30 1017 30.03 846 24.98 7.3 45.1 29 -9.7 14.6
12:35 1017 30.03 846 24.98 7.3 45.2 31 -8.7 16.4
12:40 1017 30.03 846 24.98 8.2 46.8 26 -10 13.9
12:45 1017 30.03 846 24.98 8.8 47.8 27 -9.1 15.5
12:50 1017 30.03 846 24.98 8.8 47.9 27 -9.1 15.6
12:55 1017 30.03 846 24.98 8.9 48.1 27 -9.3 15.2
13:00 1017 30.03 846 24.98 9.1 48.4 26 -9.3 15.2
13:05 1017 30.03 846 24.98 9.3 48.7 26 -9.4 15.1
13:10 1017 30.03 846 24.98 9.6 49.2 25 -9.5 14.9
13:15 1017 30.03 846 24.98 9.4 48.8 25 -9.4 15
13:20 1017 30.03 846 24.98 9.2 48.5 26 -9.2 15.4
13:25 1017 30.03 846 24.98 8.8 47.9 25 -9.9 14.1
13:30 1017 30.03 846 24.98 9.3 48.7 24 -10.2 13.6
13:35 1017 30.03 846 24.98 9.7 49.4 23 -10.5 13
13:40 1017 30.03 846 24.98 9.8 49.7 23 -10.1 13.8
13:45 1017 30.03 846 24.98 9.9 49.7 23 -10.4 13.4
13:50 1017 30.03 846 24.98 9.9 49.9 23 -10.1 13.8
13:55 1017 30.03 846 24.98 10.1 50.2 22 -10.7 12.8
14:00 1017 30.03 846 24.98 9.8 49.7 24 -9.8 14.4
14:05 1017 30.03 846 24.98 10 49.9 23 -10.4 13.3
14:10 1016 30 846 24.98 10 50.1 23 -10.2 13.6
14:15 1016 30 846 24.98 9.9 49.9 23 -10.2 13.6
14:20 1016 30 846 24.98 9.7 49.5 23 -10.2 13.7
14:25 1016 30 846 24.98 10.3 50.5 22 -10.4 13.3
14:30 1016 30 846 24.98 10.3 50.6 23 -9.9 14.2
14:35 1016 30 846 24.98 10.4 50.7 22 -10.6 13
14:40 1016 30 846 24.98 10.6 51 22 -10.3 13.5
14:45 1016 30 845 24.95 10.6 51.1 22 -10.4 13.3
14:50 1016 30 845 24.95 10.8 51.4 22 -10.4 13.3
14:55 1016 30 845 24.95 10.1 50.2 22 -10.5 13.1
15:00 1016 30 845 24.95 10.5 50.8 21 -10.7 12.7
15:05 1016 30 845 24.95 10.4 50.7 22 -10.4 13.2
15:10 1016 30 845 24.95 10.7 51.2 21 -10.5 13
15:15 1016 30 845 24.95 11 51.7 21 -10.8 12.5
15:20 1016 30 845 24.95 11.1 51.9 21 -10.7 12.8
15:25 1016 30 845 24.95 10.6 51 21 -10.7 12.7
15:30 1016 30 845 24.95 10.8 51.4 21 -10.8 12.6
15:35 1016 30 845 24.95 10.8 51.4 21 -10.9 12.4
15:40 1016 30 845 24.95 11.1 51.9 21 -10.6 12.9
15:45 1016 30 845 24.95 11 51.8 21 -10.8 12.6
15:50 1016 30 845 24.95 10.8 51.4 20 -11.2 11.8
15:55 1016 30 845 24.95 10.2 50.4 22 -10.6 13
16:00 1016 30 846 24.98 10.3 50.5 22 -10.6 12.9
16:05 1016 30 846 24.98 10.3 50.6 21 -10.8 12.5
16:10 1016 30 845 24.95 10.7 51.2 22 -10.2 13.6
16:15 1016 30 845 24.95 10.5 51 22 -10.5 13.1
16:20 1016 30 845 24.95 10.5 50.9 22 -10.4 13.3
16:25 1016 30 845 24.95 10.7 51.2 21 -10.5 13.1
16:30 1016 30 845 24.95 10.6 51 21 -11.1 12
16:35 1016 30 845 24.95 10.9 51.5 20 -11.2 11.8
16:40 1016 30 845 24.95 10.8 51.5 20 -11.5 11.4
16:45 1016 30 846 24.98 10.5 50.9 20 -11.6 11.2
16:50 1016 30 846 24.98 10.6 51 21 -11 12.2
16:55 1016 30 846 24.98 10.5 50.9 21 -11.1 12
17:00 1016 30 846 24.98 10.4 50.7 21 -10.8 12.6
17:05 1016 30 846 24.98 10.2 50.3 21 -10.9 12.3
17:10 1016 30 846 24.98 10.1 50.1 21 -11.5 11.3
17:15 1016 30 846 24.98 9.9 49.9 20 -11.7 10.9
17:20 1016 30 846 24.98 10 49.9 21 -11.6 11.1
17:25 1016 30 846 24.98 9.8 49.6 21 -11.2 11.8
17:30 1016 30 846 24.98 9.6 49.3 21 -11.5 11.4
17:35 1016 30 846 24.98 9.5 49.1 21 -11.5 11.2
17:40 1016 30 846 24.98 9.4 49 22 -11.2 11.9
17:45 1016 30 846 24.98 9.3 48.7 23 -11 12.2
17:50 1016 30 846 24.98 9.1 48.4 23 -11.2 11.8
17:55 1016 30 846 24.98 8.9 48 23 -10.9 12.3
18:00 1017 30.03 846 24.98 8.6 47.5 25 -10.2 13.7
18:05 1017 30.03 846 24.98 8.1 46.5 27 -10 13.9
18:10 1017 30.03 846 24.98 7.4 45.3 28 -9.8 14.3
18:15 1017 30.03 846 24.98 6.5 43.8 33 -8.6 16.5
18:20 1017 30.03 846 24.98 5.4 41.7 37 -8 17.6
18:25 1017 30.03 846 24.98 4.8 40.6 37 -8.6 16.5
18:30 1017 30.03 846 24.98 4.7 40.5 37 -8.8 16.1
18:35 1017 30.03 846 24.98 4.1 39.3 40 -8.3 17
18:40 1017 30.03 846 24.98 3.6 38.5 41 -8.4 16.9
18:45 1017 30.03 846 24.98 3.4 38.1 41 -8.6 16.5
18:50 1017 30.03 846 24.98 3 37.4 43 -8.3 17
18:55 1017 30.03 846 24.98 2.7 36.8 43 -8.5 16.6
19:00 1017 30.03 846 24.98 2.4 36.3 49 -7.3 18.8
19:05 1017 30.03 846 24.98 1.8 35.3 50 -7.5 18.5
19:10 1017 30.03 846 24.98 1.8 35.2 51 -7.3 18.8
19:15 1017 30.03 846 24.98 1.8 35.3 46 -8.7 16.4
19:20 1017 30.03 846 24.98 2.1 35.9 45 -8.7 16.4
19:25 1017 30.03 846 24.98 2.3 36.2 42 -9.3 15.2
19:30 1017 30.03 846 24.98 2.8 37.1 38 -10.1 13.7
19:35 1017 30.03 846 24.98 3.3 38 36 -10.4 13.2
19:40 1017 30.03 846 24.98 3.5 38.4 34 -10.8 12.6
19:45 1017 30.03 846 24.98 3.6 38.5 34 -10.8 12.6
19:50 1017 30.03 846 24.98 3.4 38.2 35 -10.7 12.7
19:55 1017 30.03 847 25.01 3.4 38.1 34 -10.9 12.4
20:00 1017 30.03 847 25.01 3.1 37.6 36 -10.7 12.8
20:05 1017 30.03 847 25.01 3 37.4 35 -11.1 12.1
20:10 1017 30.03 847 25.01 3.1 37.6 33 -11.6 11.1
20:15 1017 30.03 847 25.01 3.2 37.8 32 -12 10.4
20:20 1017 30.03 847 25.01 3.3 37.9 31 -12.1 10.2
20:25 1018 30.06 847 25.01 3.4 38 31 -12.3 9.9
20:30 1018 30.06 847 25.01 3.3 38 31 -12.2 10
20:35 1018 30.06 847 25.01 3.2 37.7 32 -12.1 10.3
20:40 1018 30.06 847 25.01 3 37.4 33 -12 10.5
20:45 1018 30.06 847 25.01 2.9 37.3 32 -12.2 10.1
20:50 1018 30.06 847 25.01 2.9 37.2 33 -11.9 10.7
20:55 1018 30.06 847 25.01 2.7 36.9 33 -12 10.5
21:00 1018 30.06 847 25.01 2.7 36.9 33 -12 10.3
21:05 1018 30.06 847 25.01 2.7 36.8 33 -12 10.4
21:10 1018 30.06 847 25.01 2.7 36.9 33 -12 10.3
21:15 1018 30.06 847 25.01 2.6 36.6 33 -12 10.4
21:20 1018 30.06 847 25.01 2.6 36.7 33 -12 10.5
21:25 1018 30.06 847 25.01 2.6 36.6 33 -12 10.3
21:30 1018 30.06 847 25.01 2.6 36.7 33 -12.2 10.1
21:35 1018 30.06 847 25.01 2.6 36.7 33 -12.2 10
21:40 1018 30.06 847 25.01 2.6 36.8 33 -12.1 10.3
21:45 1018 30.06 847 25.01 2.6 36.6 34 -12 10.5
21:50 1018 30.06 847 25.01 2.5 36.5 34 -11.9 10.5
21:55 1018 30.06 847 25.01 2.5 36.4 33 -12.1 10.2
22:00 1018 30.06 847 25.01 2.4 36.3 34 -12 10.4
22:05 1018 30.06 847 25.01 2.3 36.1 35 -11.8 10.8
22:10 1018 30.06 847 25.01 2.2 35.9 35 -11.8 10.7
22:15 1018 30.06 847 25.01 2.1 35.8 35 -11.9 10.7
22:20 1018 30.06 847 25.01 2.2 35.9 35 -11.7 10.9
22:25 1018 30.06 847 25.01 2.1 35.8 35 -11.7 11
22:30 1018 30.06 847 25.01 2 35.7 36 -11.4 11.4
22:35 1018 30.06 847 25.01 1.9 35.5 37 -11.4 11.5
22:40 1018 30.06 847 25.01 1.9 35.4 37 -11.3 11.7
22:45 1018 30.06 847 25.01 1.8 35.2 37 -11.3 11.6
22:50 1018 30.06 847 25.01 1.8 35.2 38 -11.1 12.1
22:55 1018 30.06 847 25.01 1.6 34.9 39 -11 12.2
23:00 1018 30.06 847 25.01 1.6 34.9 39 -10.9 12.4
23:05 1018 30.06 847 25.01 1.5 34.7 39 -10.9 12.5
23:10 1018 30.06 847 25.01 1.4 34.6 40 -10.8 12.6
23:15 1018 30.06 847 25.01 1.4 34.6 40 -10.8 12.5
23:20 1018 30.06 847 25.01 1.5 34.6 40 -10.7 12.7
23:25 1018 30.06 847 25.01 1.5 34.6 40 -10.7 12.7
23:30 1018 30.06 847 25.01 1.4 34.5 41 -10.6 12.9
23:35 1018 30.06 847 25.01 1.3 34.3 41 -10.5 13.1
23:40 1018 30.06 847 25.01 1.2 34.2 42 -10.4 13.2
23:45 1018 30.06 848 25.04 1.2 34.1 42 -10.4 13.2
23:50 1018 30.06 848 25.04 1.1 34.1 42 -10.3 13.4
23:55 1018 30.06 847 25.01 1 33.9 43 -10.2 13.6
24:00 1018 30.06 848 25.04 1 33.8 43 -10.2 13.7